createdAt,value
2023-05-11T00:02:02.141Z,100.00
2023-05-11T00:04:30.145Z,100.00
2023-05-11T00:06:59.500Z,100.00
2023-05-11T00:09:27.505Z,100.00
2023-05-11T00:11:55.674Z,100.00
2023-05-11T00:14:23.757Z,100.00
2023-05-11T00:16:51.718Z,100.00
2023-05-11T00:19:19.955Z,100.00
2023-05-11T00:21:48.061Z,100.00
2023-05-11T00:24:17.411Z,100.00
2023-05-11T00:26:45.500Z,100.00
2023-05-11T00:29:13.491Z,100.00
2023-05-11T00:31:41.475Z,100.00
2023-05-11T00:34:09.454Z,100.00
2023-05-11T00:36:41.312Z,100.00
2023-05-11T00:39:10.028Z,100.00
2023-05-11T00:41:39.625Z,100.00
2023-05-11T00:44:07.620Z,100.00
2023-05-11T00:46:35.668Z,100.00
2023-05-11T00:49:04.115Z,100.00
2023-05-11T00:51:33.205Z,100.00
2023-05-11T00:54:02.596Z,100.00
2023-05-11T00:56:30.576Z,100.00
2023-05-11T00:59:00.204Z,100.00
2023-05-11T01:01:28.678Z,100.00
2023-05-11T01:03:56.644Z,100.00
2023-05-11T01:06:31.951Z,100.00
2023-05-11T01:09:07.046Z,100.00
2023-05-11T01:11:42.579Z,100.00
2023-05-11T01:14:17.212Z,100.00
2023-05-11T01:16:49.899Z,100.00
2023-05-11T01:19:32.285Z,100.00
2023-05-11T01:22:01.326Z,100.00
2023-05-11T01:24:39.472Z,100.00
2023-05-11T01:27:37.095Z,100.00
2023-05-11T01:30:37.211Z,100.00
2023-05-11T01:33:11.121Z,100.00
2023-05-11T01:35:44.358Z,100.00
2023-05-11T01:38:15.310Z,100.00
2023-05-11T01:40:44.840Z,100.00
2023-05-11T01:43:18.902Z,100.00
2023-05-11T01:45:51.492Z,100.00
2023-05-11T01:48:24.649Z,100.00
2023-05-11T01:50:54.090Z,100.00
2023-05-11T01:53:24.065Z,100.00
2023-05-11T01:55:53.818Z,100.00
2023-05-11T01:58:24.895Z,100.00
2023-05-11T02:00:55.800Z,100.00
2023-05-11T02:03:24.656Z,100.00
2023-05-11T02:05:54.549Z,100.00
2023-05-11T02:08:23.592Z,100.00
2023-05-11T02:10:52.043Z,100.00
2023-05-11T02:13:21.001Z,100.00
2023-05-11T02:15:51.827Z,100.00
2023-05-11T02:18:22.310Z,100.00
2023-05-11T02:20:51.852Z,100.00
2023-05-11T02:23:22.069Z,100.00
2023-05-11T02:25:51.044Z,100.00
2023-05-11T02:28:19.516Z,100.00
2023-05-11T02:30:49.860Z,100.00
2023-05-11T02:33:26.886Z,100.00
2023-05-11T02:35:57.415Z,100.00
2023-05-11T02:38:31.740Z,100.00
2023-05-11T02:41:03.573Z,100.00
2023-05-11T02:43:36.662Z,100.00
2023-05-11T02:46:08.099Z,100.00
2023-05-11T02:48:40.178Z,100.00
2023-05-11T02:51:11.367Z,100.00
2023-05-11T02:53:42.619Z,100.00
2023-05-11T02:56:10.854Z,100.00
2023-05-11T02:58:39.288Z,100.00
2023-05-11T03:01:08.770Z,100.00
2023-05-11T03:03:38.384Z,100.00
2023-05-11T03:06:06.598Z,100.00
2023-05-11T03:08:34.981Z,100.00
2023-05-11T03:11:04.166Z,100.00
2023-05-11T03:13:33.727Z,100.00
2023-05-11T03:16:03.409Z,100.00
2023-05-11T03:18:32.414Z,100.00
2023-05-11T03:21:03.451Z,100.00
2023-05-11T03:23:31.773Z,100.00
2023-05-11T03:26:00.882Z,100.00
2023-05-11T03:28:31.085Z,100.00
2023-05-11T03:30:59.158Z,100.00
2023-05-11T03:33:27.556Z,100.00
2023-05-11T03:35:56.396Z,100.00
2023-05-11T03:38:29.337Z,100.00
2023-05-11T03:40:59.094Z,100.00
2023-05-11T03:43:28.352Z,100.00
2023-05-11T03:45:58.809Z,100.00
2023-05-11T03:48:27.204Z,100.00
2023-05-11T03:50:56.736Z,100.00
2023-05-11T03:53:26.869Z,100.00
2023-05-11T03:55:55.016Z,100.00
2023-05-11T03:58:23.798Z,100.00
2023-05-11T04:00:52.139Z,100.00
2023-05-11T04:03:20.464Z,100.00
2023-05-11T04:05:48.594Z,100.00
2023-05-11T04:08:16.778Z,100.00
2023-05-11T04:10:46.160Z,100.00
2023-05-11T04:13:14.110Z,100.00
2023-05-11T04:15:42.218Z,100.00
2023-05-11T04:18:11.299Z,100.00
2023-05-11T04:20:39.293Z,100.00
2023-05-11T04:23:09.051Z,100.00
2023-05-11T04:25:38.327Z,100.00
2023-05-11T04:28:07.668Z,100.00
2023-05-11T04:30:35.877Z,100.00
2023-05-11T04:33:05.319Z,100.00
2023-05-11T04:35:33.393Z,100.00
2023-05-11T04:38:01.438Z,100.00
2023-05-11T04:40:32.814Z,100.00
2023-05-11T04:43:08.697Z,100.00
2023-05-11T04:45:44.356Z,100.00
2023-05-11T04:48:12.538Z,100.00
2023-05-11T04:50:40.780Z,100.00
2023-05-11T04:53:08.789Z,100.00
2023-05-11T04:55:36.789Z,100.00
2023-05-11T04:58:04.762Z,100.00
2023-05-11T05:00:34.097Z,100.00
2023-05-11T05:03:02.235Z,100.00
2023-05-11T05:05:30.238Z,100.00
2023-05-11T05:07:58.252Z,100.00
2023-05-11T05:10:26.376Z,100.00
2023-05-11T05:12:54.473Z,100.00
2023-05-11T05:15:22.502Z,100.00
2023-05-11T05:17:51.967Z,100.00
2023-05-11T05:20:20.424Z,100.00
2023-05-11T05:22:48.614Z,100.00
2023-05-11T05:25:17.030Z,100.00
2023-05-11T05:27:45.121Z,100.00
2023-05-11T05:30:16.774Z,100.00
2023-05-11T05:32:44.886Z,100.00
2023-05-11T05:35:14.411Z,100.00
2023-05-11T05:37:42.877Z,100.00
2023-05-11T05:40:11.369Z,100.00
2023-05-11T05:42:39.366Z,100.00
2023-05-11T05:45:08.485Z,100.00
2023-05-11T05:47:36.555Z,100.00
2023-05-11T05:50:04.759Z,100.00
2023-05-11T05:52:34.212Z,100.00
2023-05-11T05:55:02.243Z,100.00
2023-05-11T05:57:31.428Z,100.00
2023-05-11T05:59:59.433Z,100.00
2023-05-11T06:02:27.605Z,100.00
2023-05-11T06:04:55.702Z,100.00
2023-05-11T06:07:23.603Z,100.00
2023-05-11T06:09:52.938Z,100.00
2023-05-11T06:12:20.938Z,100.00
2023-05-11T06:14:49.067Z,100.00
2023-05-11T06:17:17.068Z,100.00
2023-05-11T06:19:45.032Z,100.00
2023-05-11T06:22:13.230Z,100.00
2023-05-11T06:24:41.325Z,100.00
2023-05-11T06:27:10.772Z,100.00
2023-05-11T06:29:39.630Z,100.00
2023-05-11T06:32:07.741Z,100.00
2023-05-11T06:34:35.843Z,100.00
2023-05-11T06:37:04.055Z,100.00
2023-05-11T06:39:32.023Z,100.00
2023-05-11T06:42:04.248Z,100.00
2023-05-11T06:44:35.370Z,100.00
2023-05-11T06:47:03.518Z,100.00
2023-05-11T06:49:31.601Z,100.00
2023-05-11T06:51:59.851Z,100.00
2023-05-11T06:54:27.850Z,100.00
2023-05-11T06:56:55.845Z,100.00
2023-05-11T06:59:23.877Z,100.00
2023-05-11T07:01:53.324Z,100.00
2023-05-11T07:04:21.378Z,100.00
2023-05-11T07:06:50.375Z,100.00
2023-05-11T07:09:18.661Z,100.00
2023-05-11T07:11:46.770Z,100.00
2023-05-11T07:14:14.723Z,100.00
2023-05-11T07:16:42.922Z,100.00
2023-05-11T07:19:12.378Z,100.00
2023-05-11T07:21:40.622Z,100.00
2023-05-11T07:24:08.780Z,100.00
2023-05-11T07:26:36.857Z,100.00
2023-05-11T07:29:04.875Z,100.00
2023-05-11T07:31:33.703Z,100.00
2023-05-11T07:34:01.815Z,100.00
2023-05-11T07:36:31.728Z,100.00
2023-05-11T07:39:01.407Z,100.00
2023-05-11T07:41:30.099Z,100.00
2023-05-11T07:43:58.139Z,100.00
2023-05-11T07:46:26.093Z,100.00
2023-05-11T07:49:03.380Z,100.00
2023-05-11T07:51:37.222Z,98.81
2023-05-11T07:54:05.806Z,95.87
2023-05-11T07:56:33.901Z,97.49
2023-05-11T07:59:01.956Z,96.02
2023-05-11T08:01:30.010Z,94.10
2023-05-11T08:03:57.929Z,93.95
2023-05-11T08:06:26.478Z,93.41
2023-05-11T08:08:56.332Z,93.91
2023-05-11T08:11:24.446Z,93.72
2023-05-11T08:13:52.920Z,92.47
2023-05-11T08:16:21.290Z,91.67
2023-05-11T08:18:50.088Z,88.80
2023-05-11T08:21:18.798Z,89.20
2023-05-11T08:23:46.779Z,91.62
2023-05-11T08:26:16.783Z,89.60
2023-05-11T08:28:44.779Z,88.58
2023-05-11T08:31:14.514Z,88.67
2023-05-11T08:33:42.659Z,90.08
2023-05-11T08:36:13.268Z,89.50
2023-05-11T08:38:41.716Z,86.25
2023-05-11T08:41:12.647Z,89.18
2023-05-11T08:43:42.429Z,89.30
2023-05-11T08:46:12.781Z,92.55
2023-05-11T08:48:42.598Z,92.53
2023-05-11T08:51:10.920Z,90.12
2023-05-11T08:53:38.926Z,88.55
2023-05-11T08:56:09.638Z,87.97
2023-05-11T08:58:38.573Z,88.38
2023-05-11T09:01:09.129Z,88.29
2023-05-11T09:03:38.200Z,90.47
2023-05-11T09:06:08.301Z,92.29
2023-05-11T09:08:40.632Z,90.81
2023-05-11T09:11:08.857Z,91.79
2023-05-11T09:13:36.986Z,93.18
2023-05-11T09:16:07.307Z,91.80
2023-05-11T09:18:49.185Z,88.67
2023-05-11T09:21:17.945Z,89.82
2023-05-11T09:23:46.437Z,89.37
2023-05-11T09:26:17.944Z,89.24
2023-05-11T09:29:02.452Z,87.63
2023-05-11T09:31:42.711Z,90.59
2023-05-11T09:34:17.363Z,90.65
2023-05-11T09:36:46.972Z,91.76
2023-05-11T09:39:16.594Z,89.51
2023-05-11T09:41:45.562Z,91.38
2023-05-11T09:44:15.220Z,91.66
2023-05-11T09:46:45.945Z,90.48
2023-05-11T09:49:17.932Z,93.86
2023-05-11T09:51:46.194Z,91.53
2023-05-11T09:54:18.921Z,88.26
2023-05-11T09:56:48.880Z,88.21
2023-05-11T09:59:18.404Z,85.61
2023-05-11T10:01:46.356Z,87.45
2023-05-11T10:06:50.366Z,87.45
2023-05-11T10:09:24.361Z,82.80
2023-05-11T10:11:54.215Z,81.35
2023-05-11T10:14:23.795Z,84.75
2023-05-11T10:16:53.374Z,87.05
2023-05-11T10:19:26.051Z,85.59
2023-05-11T10:21:54.413Z,86.97
2023-05-11T10:24:23.020Z,86.10
2023-05-11T10:26:51.958Z,84.17
2023-05-11T10:29:21.586Z,84.91
2023-05-11T10:31:51.346Z,85.60
2023-05-11T10:34:23.284Z,85.55
2023-05-11T10:36:54.341Z,82.66
2023-05-11T10:39:22.989Z,80.80
2023-05-11T10:42:03.147Z,79.17
2023-05-11T10:45:22.835Z,80.22
2023-05-11T10:48:27.989Z,79.41
2023-05-11T10:51:16.478Z,78.61
2023-05-11T10:54:15.705Z,77.90
2023-05-11T10:57:00.339Z,82.33
2023-05-11T10:59:53.192Z,81.14
2023-05-11T11:02:21.430Z,81.06
2023-05-11T11:04:50.737Z,80.87
2023-05-11T11:07:19.944Z,80.32
2023-05-11T11:09:57.495Z,80.39
2023-05-11T11:12:27.083Z,79.68
2023-05-11T11:14:57.781Z,81.20
2023-05-11T11:17:29.116Z,79.16
2023-05-11T11:19:57.550Z,77.94
2023-05-11T11:22:47.281Z,80.29
2023-05-11T11:25:38.040Z,81.21
2023-05-11T11:28:06.416Z,79.71
2023-05-11T11:30:34.746Z,79.48
2023-05-11T11:33:34.803Z,78.60
2023-05-11T11:36:03.162Z,75.68
2023-05-11T11:38:32.595Z,76.18
2023-05-11T11:41:02.705Z,74.97
2023-05-11T11:43:45.890Z,74.89
2023-05-11T11:46:28.077Z,74.63
2023-05-11T11:49:11.298Z,74.85
2023-05-11T11:51:40.593Z,77.06
2023-05-11T11:54:09.138Z,79.93
2023-05-11T11:56:43.868Z,78.43
2023-05-11T11:59:14.144Z,77.52
2023-05-11T12:01:44.026Z,78.31
2023-05-11T12:05:01.019Z,78.93
2023-05-11T12:07:35.231Z,77.65
2023-05-11T12:10:04.690Z,79.40
2023-05-11T12:12:34.851Z,81.08
2023-05-11T12:15:04.088Z,81.50
2023-05-11T12:17:34.570Z,80.52
2023-05-11T12:20:17.007Z,77.90
2023-05-11T12:22:48.097Z,78.89
2023-05-11T12:25:18.099Z,79.27
2023-05-11T12:27:58.140Z,81.87
2023-05-11T12:30:28.435Z,80.80
2023-05-11T12:32:59.482Z,81.17
2023-05-11T12:35:29.007Z,81.37
2023-05-11T12:37:59.009Z,80.49
2023-05-11T12:40:27.611Z,80.36
2023-05-11T12:42:58.814Z,81.86
2023-05-11T12:45:29.292Z,77.69
2023-05-11T12:47:58.884Z,79.55
2023-05-11T12:50:26.942Z,79.67
2023-05-11T12:52:55.117Z,79.88
2023-05-11T12:55:29.453Z,78.56
2023-05-11T12:58:11.992Z,79.34
2023-05-11T13:00:52.121Z,81.06
2023-05-11T13:03:23.071Z,80.04
2023-05-11T13:05:51.641Z,80.58
2023-05-11T13:08:21.050Z,80.02
2023-05-11T13:10:49.173Z,79.96
2023-05-11T13:13:33.367Z,79.37
2023-05-11T13:16:01.430Z,80.49
2023-05-11T13:18:29.627Z,82.24
2023-05-11T13:21:08.755Z,80.58
2023-05-11T13:23:37.200Z,80.80
2023-05-11T13:26:07.820Z,81.78
2023-05-11T13:28:37.946Z,81.51
2023-05-11T13:31:06.070Z,81.20
2023-05-11T13:33:34.746Z,80.69
2023-05-11T13:36:03.591Z,81.33
2023-05-11T13:38:32.489Z,80.77
2023-05-11T13:41:00.536Z,80.75
2023-05-11T13:43:28.617Z,82.34
2023-05-11T13:45:58.050Z,80.77
2023-05-11T13:48:26.161Z,81.31
2023-05-11T13:50:54.165Z,81.09
2023-05-11T13:53:22.359Z,80.18
2023-05-11T13:55:50.505Z,81.47
2023-05-11T13:58:19.250Z,81.42
2023-05-11T14:00:56.599Z,82.21
2023-05-11T14:03:36.392Z,81.22
2023-05-11T14:06:07.640Z,82.26
2023-05-11T14:08:35.634Z,82.63
2023-05-11T14:11:03.730Z,82.49
2023-05-11T14:13:31.814Z,81.61
2023-05-11T14:16:00.526Z,82.09
2023-05-11T14:18:28.989Z,82.20
2023-05-11T14:21:00.757Z,82.62
2023-05-11T14:23:29.340Z,82.72
2023-05-11T14:25:57.310Z,82.30
2023-05-11T14:28:25.288Z,82.50
2023-05-11T14:30:53.355Z,82.41
2023-05-11T14:33:21.394Z,82.84
2023-05-11T14:35:50.815Z,83.25
2023-05-11T14:38:20.628Z,82.07
2023-05-11T14:40:51.049Z,83.72
2023-05-11T14:43:20.372Z,82.81
2023-05-11T14:45:48.812Z,82.60
2023-05-11T14:48:17.176Z,82.28
2023-05-11T14:50:45.477Z,82.67
2023-05-11T14:53:13.938Z,82.47
2023-05-11T14:55:43.284Z,82.34
2023-05-11T14:58:11.279Z,82.22
2023-05-11T15:00:40.471Z,83.15
2023-05-11T15:03:10.675Z,83.11
2023-05-11T15:05:39.273Z,82.85
2023-05-11T15:08:18.331Z,83.03
2023-05-11T15:10:55.874Z,83.72
2023-05-11T15:13:24.477Z,83.43
2023-05-11T15:15:53.006Z,83.11
2023-05-11T15:18:21.082Z,82.61
2023-05-11T15:20:50.153Z,82.78
2023-05-11T15:23:18.365Z,83.39
2023-05-11T15:25:46.864Z,83.70
2023-05-11T15:28:16.812Z,83.61
2023-05-11T15:30:44.736Z,84.17
2023-05-11T15:33:12.858Z,83.89
2023-05-11T15:35:40.994Z,84.39
2023-05-11T15:38:09.335Z,84.52
2023-05-11T15:40:37.328Z,84.35
2023-05-11T15:43:05.626Z,83.67
2023-05-11T15:45:36.744Z,84.88
2023-05-11T15:48:05.518Z,85.15
2023-05-11T15:50:33.493Z,84.48
2023-05-11T15:53:02.777Z,84.53
2023-05-11T15:55:30.741Z,84.70
2023-05-11T15:57:58.714Z,84.95
2023-05-11T16:00:26.850Z,85.07
2023-05-11T16:02:56.578Z,85.66
2023-05-11T16:05:24.638Z,85.32
2023-05-11T16:07:52.745Z,85.57
2023-05-11T16:10:20.951Z,86.16
2023-05-11T16:12:48.993Z,85.89
2023-05-11T16:15:17.102Z,86.62
2023-05-11T16:17:46.364Z,86.44
2023-05-11T16:20:15.843Z,86.21
2023-05-11T16:22:44.324Z,85.48
2023-05-11T16:25:12.338Z,85.53
2023-05-11T16:27:40.364Z,86.06
2023-05-11T16:30:23.335Z,86.72
2023-05-11T16:32:54.017Z,86.25
2023-05-11T16:35:23.492Z,87.17
2023-05-11T16:37:51.493Z,86.74
2023-05-11T16:40:22.199Z,86.61
2023-05-11T16:42:50.443Z,87.20
2023-05-11T16:45:18.482Z,87.20
2023-05-11T16:47:46.728Z,86.91
2023-05-11T16:50:16.300Z,87.32
2023-05-11T16:52:46.035Z,87.36
2023-05-11T16:55:16.245Z,87.62
2023-05-11T16:57:45.038Z,87.51
2023-05-11T17:00:14.473Z,88.08
2023-05-11T17:02:43.889Z,88.50
2023-05-11T17:05:12.616Z,88.45
2023-05-11T17:07:42.863Z,87.91
2023-05-11T17:10:13.496Z,88.27
2023-05-11T17:12:42.576Z,88.31
2023-05-11T17:15:10.957Z,88.07
2023-05-11T17:17:39.398Z,88.42
2023-05-11T17:20:10.387Z,88.53
2023-05-11T17:22:39.907Z,88.36
2023-05-11T17:25:11.583Z,87.98
2023-05-11T17:27:50.098Z,88.86
2023-05-11T17:30:18.950Z,88.93
2023-05-11T17:32:47.408Z,88.36
2023-05-11T17:35:17.072Z,89.37
2023-05-11T17:37:45.664Z,88.52
2023-05-11T17:40:16.398Z,88.35
2023-05-11T17:42:45.923Z,88.91
2023-05-11T17:45:15.540Z,87.95
2023-05-11T17:47:43.748Z,89.04
2023-05-11T17:50:12.587Z,88.75
2023-05-11T17:52:40.822Z,89.22
2023-05-11T17:55:10.936Z,89.24
2023-05-11T17:57:56.688Z,89.36
2023-05-11T18:00:28.655Z,89.06
2023-05-11T18:02:58.908Z,88.89
2023-05-11T18:05:44.666Z,89.11
2023-05-11T18:08:18.364Z,90.06
2023-05-11T18:10:48.035Z,88.88
2023-05-11T18:13:25.491Z,89.66
2023-05-11T18:15:54.545Z,89.68
2023-05-11T18:21:15.552Z,90.05
2023-05-11T18:23:43.829Z,90.52
2023-05-11T18:26:16.324Z,89.67
2023-05-11T18:28:49.026Z,90.13
2023-05-11T18:31:19.315Z,90.49
2023-05-11T18:33:50.546Z,91.09
2023-05-11T18:36:21.951Z,90.94
2023-05-11T18:38:51.098Z,90.71
2023-05-11T18:41:19.387Z,90.61
2023-05-11T18:43:50.928Z,89.41
2023-05-11T18:46:20.984Z,89.35
2023-05-11T18:48:55.012Z,88.77
2023-05-11T18:51:26.386Z,88.64
2023-05-11T18:54:02.483Z,88.83
2023-05-11T18:56:30.754Z,89.19
2023-05-11T18:59:03.509Z,89.32
2023-05-11T19:01:46.634Z,89.89
2023-05-11T19:04:20.931Z,90.20
2023-05-11T19:06:50.130Z,91.37
2023-05-11T19:09:19.004Z,91.82
2023-05-11T19:11:49.134Z,92.37
2023-05-11T19:14:19.028Z,92.99
2023-05-11T19:16:47.306Z,94.25
2023-05-11T19:19:16.546Z,94.39
2023-05-11T19:21:51.515Z,94.17
2023-05-11T19:24:26.254Z,94.97
2023-05-11T19:27:06.722Z,95.25
2023-05-11T19:29:38.402Z,95.55
2023-05-11T19:34:53.400Z,96.84
2023-05-11T19:37:21.970Z,96.74
2023-05-11T19:39:50.135Z,97.43
2023-05-11T19:42:23.550Z,97.27
2023-05-11T19:45:01.474Z,97.37
2023-05-11T19:47:29.730Z,97.76
2023-05-11T19:49:57.829Z,98.14
2023-05-11T19:52:26.162Z,98.52
2023-05-11T19:54:54.143Z,98.77
2023-05-11T19:57:22.451Z,99.71
2023-05-11T19:59:50.591Z,99.62
2023-05-11T20:02:20.130Z,100.00
2023-05-11T20:04:48.304Z,100.00
2023-05-11T20:07:16.347Z,100.00
2023-05-11T20:09:44.394Z,100.00
2023-05-11T20:12:12.364Z,100.00
2023-05-11T20:14:41.007Z,100.00
2023-05-11T20:17:09.508Z,100.00
2023-05-11T20:19:38.914Z,100.00
2023-05-11T20:22:07.235Z,100.00
2023-05-11T20:24:35.273Z,100.00
2023-05-11T20:27:09.152Z,100.00
2023-05-11T20:29:38.977Z,100.00
2023-05-11T20:32:08.039Z,100.00
2023-05-11T20:34:36.148Z,100.00
2023-05-11T20:37:05.848Z,100.00
2023-05-11T20:39:34.227Z,100.00
2023-05-11T20:42:04.464Z,100.00
2023-05-11T20:44:32.506Z,100.00
2023-05-11T20:47:00.455Z,100.00
2023-05-11T20:49:38.312Z,100.00
2023-05-11T20:52:11.231Z,100.00
2023-05-11T20:54:39.409Z,100.00
2023-05-11T20:57:08.299Z,100.00
2023-05-11T21:02:07.707Z,100.00
2023-05-11T21:04:36.199Z,100.00
2023-05-11T21:07:04.184Z,100.00
2023-05-11T21:09:33.538Z,100.00
2023-05-11T21:12:01.573Z,100.00
2023-05-11T21:14:29.624Z,100.00
2023-05-11T21:16:57.565Z,100.00
2023-05-11T21:19:26.157Z,100.00
2023-05-11T21:21:54.200Z,100.00
2023-05-11T21:24:22.349Z,100.00
2023-05-11T21:26:52.079Z,100.00
2023-05-11T21:29:20.037Z,100.00
2023-05-11T21:31:48.020Z,100.00
2023-05-11T21:34:16.955Z,100.00
2023-05-11T21:36:45.795Z,99.72
2023-05-11T21:39:14.202Z,99.97
2023-05-11T21:41:42.499Z,99.88
2023-05-11T21:44:11.835Z,99.79
2023-05-11T21:46:39.877Z,100.00
2023-05-11T21:49:07.851Z,100.00
2023-05-11T21:51:35.891Z,100.00
2023-05-11T21:54:04.022Z,100.00
2023-05-11T21:56:32.048Z,100.00
2023-05-11T21:59:00.064Z,99.98
2023-05-11T22:01:29.624Z,100.00
2023-05-11T22:04:01.191Z,100.00
2023-05-11T22:06:29.280Z,100.00
2023-05-11T22:08:57.192Z,100.00
2023-05-11T22:11:25.183Z,100.00
2023-05-11T22:13:53.393Z,100.00
2023-05-11T22:16:21.395Z,100.00
2023-05-11T22:18:50.989Z,100.00
2023-05-11T22:21:19.076Z,100.00
2023-05-11T22:23:47.048Z,100.00
2023-05-11T22:26:16.580Z,100.00
2023-05-11T22:28:45.404Z,100.00
2023-05-11T22:31:13.328Z,100.00
2023-05-11T22:33:41.365Z,100.00
2023-05-11T22:36:12.487Z,100.00
2023-05-11T22:38:41.174Z,100.00
2023-05-11T22:41:09.318Z,100.00
2023-05-11T22:43:37.284Z,100.00
2023-05-11T22:46:05.904Z,100.00
2023-05-11T22:48:34.076Z,100.00
2023-05-11T22:51:06.325Z,100.00
2023-05-11T22:53:35.770Z,100.00
2023-05-11T22:56:05.106Z,100.00
2023-05-11T22:58:33.136Z,100.00
2023-05-11T23:01:01.427Z,100.00
2023-05-11T23:03:29.431Z,100.00
2023-05-11T23:05:57.702Z,100.00
2023-05-11T23:08:26.675Z,100.00
2023-05-11T23:10:56.471Z,100.00
2023-05-11T23:13:24.629Z,100.00
2023-05-11T23:15:52.831Z,100.00
2023-05-11T23:18:21.146Z,100.00
2023-05-11T23:20:49.892Z,100.00
2023-05-11T23:23:17.913Z,100.00
2023-05-11T23:25:47.428Z,100.00
2023-05-11T23:28:16.852Z,100.00
2023-05-11T23:30:46.100Z,100.00
2023-05-11T23:33:15.234Z,100.00
2023-05-11T23:35:43.232Z,100.00
2023-05-11T23:38:11.256Z,100.00
2023-05-11T23:40:39.224Z,100.00
2023-05-11T23:43:07.144Z,100.00
2023-05-11T23:45:37.281Z,100.00
2023-05-11T23:48:05.789Z,100.00
2023-05-11T23:50:33.868Z,100.00
2023-05-11T23:53:03.573Z,100.00
2023-05-11T23:55:31.705Z,100.00
2023-05-11T23:57:59.861Z,100.00
